Dover, North Dakota
Current Conditions -  °F | °C
As of 3:35 AM on Sunday 26 Oct 2014 (Local Time) from K46D Reporting Station
Clear Clear  
Wind Chill: 29°   Ceiling: Unl
Heat Index: 36°   Visibility: 10mi
Dew Point: 30°   Wind: 8mph
Humidity: 81%   Direction: 140°SE
Pressure: 29.89"   Gusts: NA
Location:  47.4573°N, 99.0752°W
Report Text: K46D 260835Z AUTO 14007KT 10SM CLR 02/M01 A2989 RMK AO2
Loading
Personal Weather Stations






























Interactive Weather Map
Tropical Storm Tracking
New forecast layout! Learn more

10-Day Weather Forecast

Advertisements
Track Severe Weather on mobile